Track Массёров Сергей

Time Latitude Longitude Accuracy (66% radius in meters) Altitude (meters) Speed (km/hour) Bearing (degrees) Battery (%) GPS flag
15:40:41 59.981390 30.415207 3 26 1.6799999475479 302.5 55 1 delete
15:40:39 59.981376 30.415266 3 26 1.8500000238419 328.79998779297 55 1 delete
15:40:34 59.981319 30.415408 3 29 1.210000038147 7.8000001907349 55 1 delete
15:40:29 59.981286 30.415386 3 30 0.34999999403954 353.5 55 1 delete
15:40:25 59.981248 30.415295 3 32 2.3299999237061 24.89999961853 55 1 delete
15:40:22 59.981176 30.415177 4 32 2.5099999904633 355.29998779297 55 1 delete
15:40:18 59.981068 30.415179 3 32 3.0499999523163 355.20001220703 55 1 delete
15:40:15 59.980961 30.415155 4 31 3.0299999713898 359.70001220703 55 1 delete
15:40:12 59.980871 30.415144 3 30 3.9500000476837 8.1999998092651 55 1 delete
15:40:09 59.980758 30.415097 3 29 4.2600002288818 18.5 55 1 delete
15:40:06 59.980640 30.415038 3 26 3.9500000476837 15.5 55 1 delete
15:40:03 59.980542 30.414983 3 26 2.6800000667572 20.39999961853 55 1 delete
15:39:55 59.980457 30.414874 3 27 1.2200000286102 20.299999237061 55 1 delete
15:39:54 59.980448 30.414853 4 27 1.5099999904633 344.89999389648 55 1 delete
15:39:44 59.980415 30.414871 4 27 0.95999997854233 266.5 55 1 delete
15:39:37 59.980367 30.414964 3 27 2.4900000095367 344.20001220703 55 1 delete
15:39:33 59.980269 30.415068 3 27 1.8099999427795 331 55 1 delete
15:39:29 59.980188 30.415198 3 27 3.8499999046326 318.20001220703 55 1 delete
15:39:26 59.980111 30.415308 3 26 3.5 312.20001220703 55 1 delete
15:39:22 59.980053 30.415487 3 26 3.8699998855591 287.20001220703 55 1 delete
15:39:18 59.980018 30.415734 3 25 2.9100000858307 312.89999389648 55 1 delete
15:39:13 59.979931 30.415852 3 26 3.4400000572205 313.79998779297 55 1 delete
15:39:10 59.979848 30.415994 3 24 3.7999999523163 315.5 55 1 delete
15:39:08 59.979809 30.416072 3 24 1.7999999523163 322.20001220703 55 1 delete
15:39:05 59.979765 30.416143 3 24 2.8399999141693 313 55 1 delete
15:39:02 59.979703 30.416278 3 25 3 315.39999389648 55 1 delete
15:38:58 59.979624 30.416452 3 28 3.6099998950958 291.5 55 1 delete
15:38:55 59.979571 30.416634 3 28 3.6900000572205 305.20001220703 55 1 delete
15:38:52 59.979514 30.416773 3 28 3.6600000858307 318.39999389648 55 1 delete
15:38:51 59.979486 30.416822 3 29 3.2999999523163 311.79998779297 55 1 delete
15:38:49 59.979453 30.416912 3 30 3.7999999523163 314.70001220703 55 1 delete
15:38:46 59.979376 30.417067 3 30 4.0300002098083 324.20001220703 55 1 delete
15:38:43 59.979302 30.417210 3 31 3.7599999904633 319.60000610352 55 1 delete
15:38:40 59.979216 30.417345 3 30 4.4899997711182 321.10000610352 55 1 delete
15:38:37 59.979122 30.417501 3 29 3.8599998950958 323.29998779297 55 1 delete
15:38:34 59.979042 30.417639 3 29 3.6300001144409 318.10000610352 55 1 delete
15:38:31 59.978972 30.417796 3 31 4.289999961853 335.20001220703 55 1 delete
15:38:28 59.978867 30.417876 3 31 3.1600000858307 328.29998779297 55 1 delete
15:38:16 59.978795 30.418024 3 30 0 0 55 1 delete
15:38:14 59.978805 30.418016 3 31 2.6600000858307 216.89999389648 55 1 delete
15:38:11 59.978864 30.418159 3 29 3.5699999332428 232 55 1 delete
15:38:04 59.978918 30.418341 3 27 1 35.900001525879 55 1 delete
15:37:58 59.978900 30.418321 3 28 1.1599999666214 27.5 55 1 delete
15:37:54 59.978827 30.418257 3 31 2.2699999809265 30.700000762939 55 1 delete
15:37:50 59.978753 30.418146 3 31 2.8699998855591 36.099998474121 55 1 delete
15:37:46 59.978660 30.418011 3 31 3.8900001049042 37.900001525879 55 1 delete
15:37:45 59.978633 30.417926 3 30 3.2999999523163 1.6000000238419 55 1 delete
15:37:43 59.978575 30.417925 3 31 3.6800000667572 11.5 55 1 delete
15:37:40 59.978485 30.417890 3 30 3.6199998855591 20.299999237061 55 1 delete
15:37:37 59.978394 30.417829 3 29 3.7599999904633 13.39999961853 55 1 delete